Olinda, California
Current Conditions -  °F | °C
As of 12:53 PM on Monday 24 Nov 2014 (Local Time) from KRDD Reporting Station
Clear Clear  
Wind Chill: 65°   Ceiling: Unl
Heat Index: 65°   Visibility: 10mi
Dew Point: 34°   Wind: 7mph
Humidity: 32%   Direction: 20°NNE
Pressure: 30.35"   Gusts: NA
Location:  40.4495°N, 122.36°W
Report Text: KRDD 242053Z 02006KT 10SM CLR 18/01 A3035 RMK AO2 SLP277 T01830011 58017
Loading
Personal Weather Stations






























Interactive Weather Map New forecast layout! Learn more

10-Day Weather Forecast

Advertisements
Track Severe Weather on mobile